createdAt,value
2023-04-16T00:02:01.675Z,7.50
2023-04-16T00:04:28.930Z,7.40
2023-04-16T00:06:56.027Z,7.40
2023-04-16T00:09:23.005Z,7.40
2023-04-16T00:11:49.929Z,7.30
2023-04-16T00:14:17.020Z,7.40
2023-04-16T00:16:43.977Z,7.30
2023-04-16T00:19:13.511Z,7.30
2023-04-16T00:21:41.073Z,7.30
2023-04-16T00:24:08.097Z,7.30
2023-04-16T00:26:35.066Z,7.30
2023-04-16T00:29:02.260Z,7.30
2023-04-16T00:31:33.210Z,7.30
2023-04-16T00:34:00.573Z,7.40
2023-04-16T00:36:28.224Z,7.30
2023-04-16T00:38:56.156Z,7.30
2023-04-16T00:41:23.711Z,7.30
2023-04-16T00:43:51.794Z,7.30
2023-04-16T00:46:22.144Z,7.30
2023-04-16T00:48:51.129Z,7.30
2023-04-16T00:51:20.197Z,7.20
2023-04-16T00:53:47.814Z,7.20
2023-04-16T00:56:14.949Z,7.20
2023-04-16T00:58:41.963Z,7.20
2023-04-16T01:01:08.872Z,7.20
2023-04-16T01:03:35.976Z,7.10
2023-04-16T01:06:03.293Z,7.00
2023-04-16T01:08:30.238Z,6.90
2023-04-16T01:10:57.211Z,6.90
2023-04-16T01:13:24.094Z,6.90
2023-04-16T01:15:51.498Z,6.80
2023-04-16T01:18:20.524Z,6.80
2023-04-16T01:20:48.532Z,6.80
2023-04-16T01:23:16.157Z,6.80
2023-04-16T01:25:43.058Z,6.80
2023-04-16T01:28:09.961Z,6.80
2023-04-16T01:30:37.640Z,6.70
2023-04-16T01:33:06.374Z,6.70
2023-04-16T01:35:33.305Z,6.70
2023-04-16T01:38:00.271Z,6.70
2023-04-16T01:40:27.253Z,6.70
2023-04-16T01:42:54.154Z,6.70
2023-04-16T01:45:21.211Z,6.70
2023-04-16T01:47:52.699Z,6.70
2023-04-16T01:50:21.228Z,6.70
2023-04-16T01:52:48.124Z,6.70
2023-04-16T01:55:15.315Z,6.70
2023-04-16T01:57:42.219Z,6.70
2023-04-16T02:00:09.657Z,6.70
2023-04-16T02:02:37.013Z,6.70
2023-04-16T02:05:04.336Z,6.70
2023-04-16T02:07:31.828Z,6.70
2023-04-16T02:09:58.740Z,6.70
2023-04-16T02:12:26.521Z,6.80
2023-04-16T02:14:53.477Z,6.70
2023-04-16T02:17:20.587Z,6.70
2023-04-16T02:19:48.002Z,6.70
2023-04-16T02:22:14.996Z,6.70
2023-04-16T02:24:41.985Z,6.70
2023-04-16T02:27:08.913Z,6.70
2023-04-16T02:29:36.348Z,6.70
2023-04-16T02:32:03.438Z,6.70
2023-04-16T02:34:30.522Z,6.70
2023-04-16T02:36:58.509Z,6.70
2023-04-16T02:39:25.378Z,6.70
2023-04-16T02:41:52.538Z,6.70
2023-04-16T02:44:19.484Z,6.70
2023-04-16T02:46:46.527Z,6.70
2023-04-16T02:49:13.507Z,6.70
2023-04-16T02:51:40.437Z,6.70
2023-04-16T02:54:07.356Z,6.70
2023-04-16T02:56:34.250Z,6.60
2023-04-16T02:59:01.176Z,6.60
2023-04-16T03:01:29.133Z,6.60
2023-04-16T03:03:56.240Z,6.60
2023-04-16T03:06:23.408Z,6.60
2023-04-16T03:08:50.396Z,6.60
2023-04-16T03:11:17.673Z,6.60
2023-04-16T03:13:44.548Z,6.60
2023-04-16T03:16:11.734Z,6.60
2023-04-16T03:18:38.675Z,6.60
2023-04-16T03:21:05.863Z,6.50
2023-04-16T03:23:32.892Z,6.50
2023-04-16T03:25:59.841Z,6.50
2023-04-16T03:28:26.722Z,6.60
2023-04-16T03:30:54.026Z,6.50
2023-04-16T03:33:21.701Z,6.60
2023-04-16T03:35:56.190Z,6.50
2023-04-16T03:38:23.723Z,6.50
2023-04-16T03:40:50.661Z,6.50
2023-04-16T03:43:17.554Z,6.50
2023-04-16T03:45:46.024Z,6.50
2023-04-16T03:48:13.120Z,6.50
2023-04-16T03:50:40.181Z,6.50
2023-04-16T03:53:07.163Z,6.40
2023-04-16T03:55:35.300Z,6.50
2023-04-16T03:58:03.549Z,6.50
2023-04-16T04:00:30.852Z,6.50
2023-04-16T04:02:57.997Z,6.40
2023-04-16T04:05:25.123Z,6.40
2023-04-16T04:07:52.168Z,6.40
2023-04-16T04:10:19.030Z,6.40
2023-04-16T04:12:46.092Z,6.40
2023-04-16T04:15:13.123Z,6.40
2023-04-16T04:17:40.117Z,6.40
2023-04-16T04:20:07.524Z,6.40
2023-04-16T04:22:34.461Z,6.40
2023-04-16T04:25:01.409Z,6.40
2023-04-16T04:27:28.385Z,6.30
2023-04-16T04:29:56.716Z,6.30
2023-04-16T04:32:23.694Z,6.30
2023-04-16T04:34:50.683Z,6.40
2023-04-16T04:37:17.634Z,6.30
2023-04-16T04:39:44.495Z,6.40
2023-04-16T04:42:11.659Z,6.30
2023-04-16T04:44:38.560Z,6.30
2023-04-16T04:47:05.482Z,6.30
2023-04-16T04:49:32.342Z,6.30
2023-04-16T04:51:59.255Z,6.40
2023-04-16T04:54:26.127Z,6.30
2023-04-16T04:56:53.119Z,6.30
2023-04-16T04:59:21.678Z,6.30
2023-04-16T05:01:49.068Z,6.30
2023-04-16T05:04:16.024Z,6.30
2023-04-16T05:06:43.520Z,6.30
2023-04-16T05:09:12.006Z,6.30
2023-04-16T05:11:39.484Z,6.30
2023-04-16T05:14:06.382Z,6.30
2023-04-16T05:16:36.290Z,6.30
2023-04-16T05:19:03.465Z,6.30
2023-04-16T05:21:30.850Z,6.30
2023-04-16T05:23:58.952Z,6.40
2023-04-16T05:26:25.932Z,6.40
2023-04-16T05:28:52.821Z,6.40
2023-04-16T05:31:19.791Z,6.30
2023-04-16T05:33:46.778Z,6.20
2023-04-16T05:36:13.657Z,6.30
2023-04-16T05:38:40.525Z,6.30
2023-04-16T05:41:07.513Z,6.30
2023-04-16T05:43:34.368Z,6.20
2023-04-16T05:46:01.406Z,6.30
2023-04-16T05:48:28.305Z,6.20
2023-04-16T05:50:55.240Z,6.20
2023-04-16T05:53:22.300Z,6.30
2023-04-16T05:55:49.202Z,6.20
2023-04-16T05:58:16.080Z,6.30
2023-04-16T06:00:43.139Z,6.40
2023-04-16T06:03:10.213Z,6.40
2023-04-16T06:05:37.221Z,6.50
2023-04-16T06:08:04.149Z,6.50
2023-04-16T06:10:31.477Z,6.50
2023-04-16T06:12:58.369Z,6.40
2023-04-16T06:15:25.350Z,6.40
2023-04-16T06:17:52.309Z,6.40
2023-04-16T06:20:19.223Z,6.40
2023-04-16T06:22:46.290Z,6.40
2023-04-16T06:25:13.137Z,6.40
2023-04-16T06:27:40.092Z,6.30
2023-04-16T06:30:12.619Z,6.30
2023-04-16T06:32:39.880Z,6.40
2023-04-16T06:35:07.250Z,6.30
2023-04-16T06:37:34.198Z,6.30
2023-04-16T06:40:01.148Z,6.30
2023-04-16T06:42:28.210Z,6.40
2023-04-16T06:44:55.104Z,6.30
2023-04-16T06:47:22.099Z,6.30
2023-04-16T06:49:49.011Z,6.30
2023-04-16T06:52:16.092Z,6.30
2023-04-16T06:54:42.984Z,6.40
2023-04-16T06:57:09.882Z,6.40
2023-04-16T06:59:36.784Z,6.30
2023-04-16T07:02:03.743Z,6.40
2023-04-16T07:04:30.712Z,6.40
2023-04-16T07:06:57.635Z,6.40
2023-04-16T07:09:25.007Z,6.50
2023-04-16T07:11:51.931Z,6.40
2023-04-16T07:14:18.961Z,6.40
2023-04-16T07:16:45.985Z,6.60
2023-04-16T07:19:12.950Z,6.50
2023-04-16T07:21:42.071Z,6.50
2023-04-16T07:24:08.972Z,6.50
2023-04-16T07:26:35.967Z,6.40
2023-04-16T07:29:02.825Z,6.50
2023-04-16T07:31:29.894Z,6.60
2023-04-16T07:33:56.790Z,6.60
2023-04-16T07:36:23.728Z,6.60
2023-04-16T07:38:50.717Z,6.60
2023-04-16T07:41:17.660Z,6.70
2023-04-16T07:43:44.546Z,6.80
2023-04-16T07:46:11.494Z,6.80
2023-04-16T07:48:38.392Z,6.70
2023-04-16T07:51:05.457Z,6.80
2023-04-16T07:53:32.389Z,6.80
2023-04-16T07:55:59.277Z,6.90
2023-04-16T07:58:26.187Z,6.90
2023-04-16T08:00:53.407Z,6.90
2023-04-16T08:03:20.553Z,7.10
2023-04-16T08:05:47.553Z,7.20
2023-04-16T08:08:14.523Z,7.20
2023-04-16T08:10:41.449Z,7.40
2023-04-16T08:13:08.362Z,7.50
2023-04-16T08:15:35.279Z,7.50
2023-04-16T08:18:02.229Z,7.60
2023-04-16T08:20:29.143Z,7.70
2023-04-16T08:22:56.083Z,7.70
2023-04-16T08:25:24.773Z,7.60
2023-04-16T08:27:51.666Z,7.60
2023-04-16T08:30:18.723Z,7.60
2023-04-16T08:32:47.371Z,7.70
2023-04-16T08:35:15.604Z,7.80
2023-04-16T08:37:42.480Z,7.80
2023-04-16T08:40:09.788Z,8.00
2023-04-16T08:42:52.601Z,8.00
2023-04-16T08:45:19.838Z,8.20
2023-04-16T08:47:49.114Z,8.40
2023-04-16T08:50:17.440Z,8.40
2023-04-16T08:52:52.741Z,8.20
2023-04-16T08:55:23.791Z,8.30
2023-04-16T08:58:20.964Z,8.20
2023-04-16T09:00:49.368Z,8.30
2023-04-16T09:03:16.565Z,8.50
2023-04-16T09:05:44.436Z,8.40
2023-04-16T09:08:12.983Z,8.40
2023-04-16T09:10:40.005Z,8.30
2023-04-16T09:13:09.571Z,8.20
2023-04-16T09:15:36.748Z,8.30
2023-04-16T09:18:03.979Z,8.30
2023-04-16T09:20:31.010Z,8.60
2023-04-16T09:22:57.947Z,8.70
2023-04-16T09:25:25.680Z,8.90
2023-04-16T09:27:52.895Z,8.70
2023-04-16T09:30:23.455Z,8.70
2023-04-16T09:33:12.393Z,8.70
2023-04-16T09:35:50.459Z,8.60
2023-04-16T09:38:18.026Z,8.50
2023-04-16T09:40:45.270Z,8.40
2023-04-16T09:43:14.530Z,8.50
2023-04-16T09:45:55.243Z,8.60
2023-04-16T09:48:32.958Z,8.80
2023-04-16T09:51:01.045Z,8.80
2023-04-16T09:53:30.321Z,8.90
2023-04-16T09:56:01.697Z,9.20
2023-04-16T09:58:29.303Z,9.50
2023-04-16T10:01:18.323Z,9.50
2023-04-16T10:03:50.221Z,9.90
2023-04-16T10:06:19.722Z,10.20
2023-04-16T10:08:51.199Z,10.20
2023-04-16T10:11:19.011Z,10.10
2023-04-16T10:13:46.607Z,10.10
2023-04-16T10:16:14.067Z,9.80
2023-04-16T10:18:45.589Z,9.70
2023-04-16T10:21:13.251Z,9.70
2023-04-16T10:23:42.926Z,9.50
2023-04-16T10:26:10.197Z,9.70
2023-04-16T10:28:37.564Z,9.60
2023-04-16T10:31:08.263Z,9.30
2023-04-16T10:33:37.328Z,9.20
2023-04-16T10:36:15.963Z,9.20
2023-04-16T10:38:48.196Z,9.20
2023-04-16T10:41:15.676Z,9.30
2023-04-16T10:43:47.878Z,9.30
2023-04-16T10:46:39.183Z,9.40
2023-04-16T10:49:28.231Z,9.20
2023-04-16T10:52:07.563Z,8.90
2023-04-16T10:54:36.562Z,9.10
2023-04-16T10:57:05.475Z,9.10
2023-04-16T10:59:34.991Z,9.30
2023-04-16T11:02:09.930Z,9.10
2023-04-16T11:04:39.345Z,8.80
2023-04-16T11:07:15.587Z,8.80
2023-04-16T11:09:54.288Z,8.70
2023-04-16T11:12:30.074Z,8.90
2023-04-16T11:15:11.006Z,9.00
2023-04-16T11:17:39.347Z,9.00
2023-04-16T11:20:17.855Z,9.00
2023-04-16T11:22:48.430Z,9.00
2023-04-16T11:25:26.877Z,9.10
2023-04-16T11:27:54.882Z,9.30
2023-04-16T11:30:42.578Z,9.40
2023-04-16T11:33:11.882Z,9.60
2023-04-16T11:35:40.279Z,9.80
2023-04-16T11:38:07.749Z,9.90
2023-04-16T11:40:36.028Z,9.80
2023-04-16T11:43:16.532Z,9.70
2023-04-16T11:46:02.640Z,9.80
2023-04-16T11:48:52.653Z,9.80
2023-04-16T11:51:20.757Z,9.70
2023-04-16T11:53:53.108Z,9.80
2023-04-16T11:56:31.006Z,9.90
2023-04-16T11:59:12.853Z,10.20
2023-04-16T12:01:42.433Z,10.00
2023-04-16T12:04:09.993Z,9.80
2023-04-16T12:06:37.357Z,9.50
2023-04-16T12:09:27.286Z,9.40
2023-04-16T12:11:54.395Z,9.30
2023-04-16T12:14:23.110Z,9.00
2023-04-16T12:16:50.231Z,9.00
2023-04-16T12:19:18.389Z,8.70
2023-04-16T12:21:46.960Z,8.70
2023-04-16T12:24:16.100Z,8.80
2023-04-16T12:26:45.457Z,8.90
2023-04-16T12:29:22.316Z,8.90
2023-04-16T12:31:50.608Z,9.30
2023-04-16T12:37:58.688Z,9.20
2023-04-16T12:40:25.879Z,9.10
2023-04-16T12:42:53.036Z,9.20
2023-04-16T12:45:20.037Z,9.10
2023-04-16T12:47:47.553Z,9.30
2023-04-16T12:50:14.493Z,9.50
2023-04-16T12:52:41.513Z,9.50
2023-04-16T12:55:08.826Z,9.50
2023-04-16T12:57:35.821Z,9.40
2023-04-16T13:00:02.870Z,9.40
2023-04-16T13:02:29.908Z,9.50
2023-04-16T13:04:56.865Z,9.50
2023-04-16T13:07:24.941Z,9.60
2023-04-16T13:09:51.809Z,9.80
2023-04-16T13:12:18.990Z,9.60
2023-04-16T13:14:46.040Z,9.90
2023-04-16T13:17:12.994Z,9.70
2023-04-16T13:19:39.867Z,9.70
2023-04-16T13:22:06.829Z,9.40
2023-04-16T13:24:33.784Z,9.50
2023-04-16T13:27:00.826Z,9.40
2023-04-16T13:29:28.190Z,9.50
2023-04-16T13:31:55.141Z,9.30
2023-04-16T13:34:22.136Z,9.20
2023-04-16T13:36:49.219Z,9.20
2023-04-16T13:39:16.573Z,9.20
2023-04-16T13:41:43.518Z,9.00
2023-04-16T13:44:10.433Z,9.20
2023-04-16T13:46:37.411Z,9.40
2023-04-16T13:49:04.461Z,9.30
2023-04-16T13:51:32.207Z,9.20
2023-04-16T13:53:59.156Z,8.80
2023-04-16T13:56:26.196Z,8.80
2023-04-16T13:58:53.460Z,8.80
2023-04-16T14:01:20.687Z,8.90
2023-04-16T14:03:47.747Z,8.90
2023-04-16T14:06:15.244Z,8.90
2023-04-16T14:08:42.203Z,8.90
2023-04-16T14:11:09.362Z,8.80
2023-04-16T14:13:36.945Z,8.80
2023-04-16T14:16:04.390Z,8.80
2023-04-16T14:18:31.393Z,8.60
2023-04-16T14:20:59.025Z,8.70
2023-04-16T14:23:26.671Z,8.70
2023-04-16T14:25:53.866Z,8.80
2023-04-16T14:28:20.856Z,8.80
2023-04-16T14:30:47.730Z,8.70
2023-04-16T14:33:14.692Z,8.60
2023-04-16T14:35:41.664Z,8.70
2023-04-16T14:38:08.656Z,8.50
2023-04-16T14:40:35.896Z,8.50
2023-04-16T14:43:02.871Z,8.30
2023-04-16T14:45:30.987Z,8.20
2023-04-16T14:47:58.015Z,8.30
2023-04-16T14:50:25.054Z,8.30
2023-04-16T14:52:53.816Z,8.30
2023-04-16T14:55:21.427Z,8.40
2023-04-16T14:57:48.354Z,8.30
2023-04-16T15:00:17.663Z,8.10
2023-04-16T15:02:46.378Z,8.10
2023-04-16T15:05:13.810Z,8.00
2023-04-16T15:07:40.842Z,8.00
2023-04-16T15:10:09.311Z,8.00
2023-04-16T15:12:36.427Z,8.00
2023-04-16T15:15:03.607Z,7.90
2023-04-16T15:17:30.711Z,8.00
2023-04-16T15:19:57.695Z,7.90
2023-04-16T15:22:24.725Z,8.00
2023-04-16T15:24:51.722Z,8.00
2023-04-16T15:27:19.430Z,7.90
2023-04-16T15:29:48.093Z,7.90
2023-04-16T15:32:15.183Z,7.90
2023-04-16T15:34:42.172Z,7.80
2023-04-16T15:37:09.781Z,7.80
2023-04-16T15:39:36.824Z,7.70
2023-04-16T15:42:07.501Z,7.70
2023-04-16T15:44:35.195Z,7.70
2023-04-16T15:47:02.221Z,7.70
2023-04-16T15:49:29.185Z,7.70
2023-04-16T15:51:56.525Z,7.70
2023-04-16T15:54:24.265Z,7.70
2023-04-16T15:56:51.767Z,7.70
2023-04-16T15:59:18.823Z,7.70
2023-04-16T16:01:46.056Z,7.70
2023-04-16T16:04:13.177Z,7.70
2023-04-16T16:06:40.426Z,7.70
2023-04-16T16:09:08.185Z,7.80
2023-04-16T16:11:37.159Z,7.60
2023-04-16T16:14:04.334Z,7.60
2023-04-16T16:16:32.853Z,7.60
2023-04-16T16:18:59.976Z,7.50
2023-04-16T16:21:28.741Z,7.50
2023-04-16T16:23:55.631Z,7.50
2023-04-16T16:26:23.209Z,7.30
2023-04-16T16:28:50.073Z,7.30
2023-04-16T16:31:17.052Z,7.20
2023-04-16T16:33:44.006Z,7.20
2023-04-16T16:36:11.526Z,7.10
2023-04-16T16:38:40.227Z,7.10
2023-04-16T16:41:07.438Z,7.10
2023-04-16T16:43:36.811Z,7.00
2023-04-16T16:46:04.857Z,7.00
2023-04-16T16:48:31.842Z,7.00
2023-04-16T16:50:58.803Z,6.90
2023-04-16T16:53:25.854Z,6.90
2023-04-16T16:55:52.781Z,7.00
2023-04-16T16:58:19.735Z,7.00
2023-04-16T17:00:46.692Z,6.90
2023-04-16T17:03:13.677Z,6.90
2023-04-16T17:05:40.988Z,6.80
2023-04-16T17:08:07.975Z,6.70
2023-04-16T17:10:35.976Z,6.70
2023-04-16T17:13:03.122Z,6.70
2023-04-16T17:15:30.133Z,6.60
2023-04-16T17:17:57.281Z,6.60
2023-04-16T17:20:24.287Z,6.60
2023-04-16T17:22:51.331Z,6.60
2023-04-16T17:25:18.298Z,6.60
2023-04-16T17:27:45.254Z,6.50
2023-04-16T17:30:12.495Z,6.50
2023-04-16T17:32:39.616Z,6.50
2023-04-16T17:35:07.118Z,6.50
2023-04-16T17:37:34.357Z,6.50
2023-04-16T17:40:01.356Z,6.50
2023-04-16T17:46:15.446Z,6.40
2023-04-16T17:48:44.083Z,6.40
2023-04-16T17:51:12.325Z,6.40
2023-04-16T17:53:39.439Z,6.30
2023-04-16T17:56:06.854Z,6.30
2023-04-16T17:58:35.365Z,6.30
2023-04-16T18:01:03.484Z,6.30
2023-04-16T18:03:31.482Z,6.30
2023-04-16T18:05:58.714Z,6.30
2023-04-16T18:08:25.808Z,6.30
2023-04-16T18:10:54.941Z,6.30
2023-04-16T18:13:22.004Z,6.30
2023-04-16T18:15:49.155Z,6.30
2023-04-16T18:18:16.343Z,6.30
2023-04-16T18:20:43.416Z,6.30
2023-04-16T18:23:10.376Z,6.30
2023-04-16T18:25:37.368Z,6.20
2023-04-16T18:28:05.262Z,6.30
2023-04-16T18:30:32.366Z,6.30
2023-04-16T18:35:29.326Z,6.20
2023-04-16T18:37:56.187Z,6.20
2023-04-16T18:40:23.141Z,6.20
2023-04-16T18:42:50.102Z,6.20
2023-04-16T18:45:21.525Z,6.20
2023-04-16T18:47:50.384Z,6.20
2023-04-16T18:50:17.523Z,6.20
2023-04-16T18:52:44.536Z,6.20
2023-04-16T18:55:11.468Z,6.20
2023-04-16T18:57:38.393Z,6.10
2023-04-16T19:00:11.267Z,6.20
2023-04-16T19:06:18.946Z,6.10
2023-04-16T19:08:45.918Z,6.00
2023-04-16T19:11:12.875Z,6.00
2023-04-16T19:13:39.944Z,6.00
2023-04-16T19:16:11.571Z,5.90
2023-04-16T19:18:39.368Z,6.00
2023-04-16T19:21:07.375Z,6.00
2023-04-16T19:23:34.387Z,6.00
2023-04-16T19:26:01.786Z,6.00
2023-04-16T19:28:29.087Z,6.00
2023-04-16T19:30:56.261Z,6.00
2023-04-16T19:33:23.234Z,6.00
2023-04-16T19:35:50.102Z,6.00
2023-04-16T19:38:17.177Z,6.00
2023-04-16T19:40:46.652Z,6.00
2023-04-16T19:43:13.868Z,6.00
2023-04-16T19:45:52.397Z,6.00
2023-04-16T19:48:20.140Z,6.00
2023-04-16T19:50:47.067Z,5.90
2023-04-16T19:53:14.425Z,6.00
2023-04-16T19:55:42.156Z,5.90
2023-04-16T19:58:09.638Z,6.00
2023-04-16T20:00:38.704Z,6.00
2023-04-16T20:03:06.610Z,6.00
2023-04-16T20:05:33.604Z,6.00
2023-04-16T20:08:00.619Z,6.00
2023-04-16T20:10:27.910Z,6.00
2023-04-16T20:12:54.853Z,6.00
2023-04-16T20:15:21.795Z,6.00
2023-04-16T20:17:48.781Z,6.00
2023-04-16T20:20:16.520Z,6.00
2023-04-16T20:22:43.900Z,6.00
2023-04-16T20:25:11.586Z,6.00
2023-04-16T20:27:38.652Z,6.00
2023-04-16T20:30:06.452Z,6.00
2023-04-16T20:32:33.630Z,6.00
2023-04-16T20:35:02.114Z,6.00
2023-04-16T20:37:29.221Z,6.10
2023-04-16T20:39:56.491Z,6.00
2023-04-16T20:42:26.518Z,6.10
2023-04-16T20:44:56.611Z,6.10
2023-04-16T20:47:24.115Z,6.10
2023-04-16T20:49:52.905Z,6.00
2023-04-16T20:52:20.249Z,6.00
2023-04-16T20:54:47.851Z,6.00
2023-04-16T20:57:14.761Z,6.00
2023-04-16T20:59:41.730Z,6.00
2023-04-16T21:02:08.903Z,6.00
2023-04-16T21:04:36.259Z,5.90
2023-04-16T21:07:04.444Z,6.00
2023-04-16T21:09:31.758Z,6.00
2023-04-16T21:11:58.729Z,6.00
2023-04-16T21:14:25.728Z,6.00
2023-04-16T21:16:52.651Z,6.00
2023-04-16T21:19:20.098Z,5.90
2023-04-16T21:21:47.056Z,5.90
2023-04-16T21:24:13.988Z,5.90
2023-04-16T21:26:41.020Z,5.90
2023-04-16T21:29:07.918Z,5.90
2023-04-16T21:31:35.018Z,5.90
2023-04-16T21:34:01.999Z,5.90
2023-04-16T21:36:32.049Z,5.90
2023-04-16T21:38:59.177Z,5.90
2023-04-16T21:41:26.541Z,5.90
2023-04-16T21:43:53.570Z,5.90
2023-04-16T21:46:21.001Z,5.90
2023-04-16T21:48:48.616Z,5.90
2023-04-16T21:51:15.938Z,5.90
2023-04-16T21:53:42.882Z,5.90
2023-04-16T21:56:09.766Z,5.90
2023-04-16T21:58:36.735Z,5.90
2023-04-16T22:01:03.934Z,5.90
2023-04-16T22:03:31.151Z,5.90
2023-04-16T22:06:01.772Z,5.90
2023-04-16T22:08:29.608Z,5.90
2023-04-16T22:11:01.694Z,5.90
2023-04-16T22:13:32.575Z,5.90
2023-04-16T22:16:03.409Z,5.90
2023-04-16T22:18:33.751Z,5.90
2023-04-16T22:21:00.913Z,5.90
2023-04-16T22:23:27.813Z,6.00
2023-04-16T22:25:56.098Z,6.00
2023-04-16T22:28:23.632Z,5.90
2023-04-16T22:30:50.597Z,5.90
2023-04-16T22:33:17.609Z,5.90
2023-04-16T22:35:44.570Z,5.90
2023-04-16T22:38:11.483Z,5.90
2023-04-16T22:40:38.425Z,5.90
2023-04-16T22:43:05.700Z,5.90
2023-04-16T22:45:32.606Z,5.90
2023-04-16T22:47:59.547Z,5.90
2023-04-16T22:50:26.588Z,5.90
2023-04-16T22:52:53.450Z,5.90
2023-04-16T22:55:20.456Z,5.90
2023-04-16T22:57:47.698Z,6.00
2023-04-16T23:00:18.076Z,5.90
2023-04-16T23:02:45.637Z,5.90
2023-04-16T23:05:12.630Z,5.90
2023-04-16T23:07:39.570Z,5.90
2023-04-16T23:10:08.512Z,5.90
2023-04-16T23:12:37.539Z,5.90
2023-04-16T23:15:06.777Z,5.90
2023-04-16T23:17:35.154Z,5.90
2023-04-16T23:20:02.773Z,5.90
2023-04-16T23:22:29.704Z,5.90
2023-04-16T23:24:56.646Z,6.00
2023-04-16T23:27:23.623Z,5.90
2023-04-16T23:29:50.738Z,5.90
2023-04-16T23:32:17.859Z,5.90
2023-04-16T23:34:44.786Z,5.90
2023-04-16T23:37:11.805Z,5.90
2023-04-16T23:39:38.805Z,5.90
2023-04-16T23:42:06.002Z,5.90
2023-04-16T23:44:33.204Z,5.90
2023-04-16T23:47:00.589Z,5.90
2023-04-16T23:49:27.583Z,5.90
2023-04-16T23:51:54.498Z,5.90
2023-04-16T23:54:21.585Z,5.90
2023-04-16T23:56:48.905Z,5.90
2023-04-16T23:59:16.867Z,6.00
